Terminal Aerodrome Forecast
Issued by NWS La Crosse, WI

Home | Current Version | Previous Version | Text Only | Print | Product List | Glossary On
Versions: 1 2 3 4 5 6 7 8 9 10 11 12 13 14 15 16 17 18 19 20 21 22 23 24 25 26 27 28 29 30 31 32 33 34 35 36 37 38 39 40 41 42 43 44 45 46 47 48 49
000
FTUS43 KARX 310619 AAA
TAFLSE
TAF AMD
KLSE 310619Z 3106/0106 VRB03KT P6SM SCT025
     FM310800 12003KT 4SM BR SCT005
     FM311000 13003KT 2SM BR SCT002
     FM311400 15006KT 4SM BR BKN006
     FM311500 17010KT P6SM SCT080=

USA.gov is the U.S. government's official web portal to all federal, state and local government web resources and services.